Terminal Aerodrome Forecast
Issued by NWS

Home | Current Version | Previous Version | Text Only | Print | Product List | Glossary On
Versions: 1 2 3 4 5 6 7 8 9 10 11 12 13 14 15 16 17 18 19
000
FTUS43 KFGF 222300
TAFDVL
TAF
KDVL 222335Z 2300/2324 03011KT 4SM -RASN BR OVC004
     FM230800 01013KT 1SM -SN BR OVC007
     FM232000 34015KT 2SM BR OVC007
      AMD LTD TO CLD VIS AND WIND=

USA.gov is the U.S. government's official web portal to all federal, state and local government web resources and services.